Boght Corners, New York
Current Conditions -  °F | °C
As of 6:51 PM on Sunday 21 Dec 2014 (Local Time) from KALB Reporting Station
Overcast Overcast  
Wind Chill: 31°   Ceiling: 3000
Heat Index: 31°   Visibility: 10mi
Dew Point: 23°   Wind: 3mph
Humidity: 72%   Direction: 10°N
Pressure: 30.37"   Gusts: NA
Location:  42.7824°N, 73.7303°W
Report Text: KALB 212351Z 01003KT 10SM OVC030 M01/M05 A3037 RMK AO2 SLP286 4/001 60000 T10061050 11006 21011 53015
Loading
Personal Weather Stations






























Interactive Weather Map New forecast layout! Learn more

10-Day Weather Forecast

Advertisements
Track Severe Weather on mobile